createdAt,value
2019-02-02T00:01:17.806Z,24.27
2019-02-02T00:03:45.559Z,25.02
2019-02-02T00:06:13.204Z,23.47
2019-02-02T00:08:40.918Z,24.72
2019-02-02T00:11:08.549Z,25.37
2019-02-02T00:13:36.192Z,25.88
2019-02-02T00:16:04.627Z,23.95
2019-02-02T00:18:32.296Z,25.75
2019-02-02T00:20:59.992Z,25.27
2019-02-02T00:23:27.716Z,26.23
2019-02-02T00:25:55.395Z,25.82
2019-02-02T00:28:23.015Z,25.85
2019-02-02T00:30:50.824Z,25.90
2019-02-02T00:33:18.480Z,26.23
2019-02-02T00:35:46.166Z,27.70
2019-02-02T00:38:13.882Z,26.55
2019-02-02T00:40:41.562Z,26.97
2019-02-02T00:43:09.263Z,26.52
2019-02-02T00:45:37.234Z,26.68
2019-02-02T00:48:05.086Z,25.75
2019-02-02T00:50:32.724Z,25.23
2019-02-02T00:53:01.215Z,27.30
2019-02-02T00:55:28.991Z,27.15
2019-02-02T00:57:56.642Z,26.75
2019-02-02T01:00:24.524Z,27.20
2019-02-02T01:02:52.306Z,26.73
2019-02-02T01:05:20.181Z,26.90
2019-02-02T01:07:48.016Z,24.98
2019-02-02T01:10:24.080Z,26.55
2019-02-02T01:12:51.752Z,26.25
2019-02-02T01:15:19.525Z,29.90
2019-02-02T01:17:47.240Z,27.20
2019-02-02T01:20:15.223Z,28.70
2019-02-02T01:22:43.114Z,26.70
2019-02-02T01:25:11.031Z,26.55
2019-02-02T01:27:38.736Z,26.93
2019-02-02T01:30:08.157Z,30.27
2019-02-02T01:32:35.838Z,26.55
2019-02-02T01:35:04.597Z,27.67
2019-02-02T01:37:32.273Z,27.42
2019-02-02T01:39:59.879Z,26.60
2019-02-02T01:42:27.548Z,29.40
2019-02-02T01:44:55.276Z,28.17
2019-02-02T01:47:22.924Z,27.00
2019-02-02T01:49:50.539Z,27.15
2019-02-02T01:52:18.196Z,27.07
2019-02-02T01:54:45.892Z,26.57
2019-02-02T01:57:13.511Z,26.05
2019-02-02T01:59:41.199Z,27.20
2019-02-02T02:02:08.846Z,28.05
2019-02-02T02:04:36.494Z,26.48
2019-02-02T02:07:04.281Z,26.45
2019-02-02T02:09:31.983Z,27.85
2019-02-02T02:11:59.639Z,26.45
2019-02-02T02:14:27.319Z,26.95
2019-02-02T02:16:54.971Z,25.43
2019-02-02T02:19:22.594Z,26.50
2019-02-02T02:21:50.306Z,26.87
2019-02-02T02:24:17.979Z,26.20
2019-02-02T02:26:45.735Z,27.90
2019-02-02T02:29:13.418Z,28.20
2019-02-02T02:31:41.155Z,27.05
2019-02-02T02:34:08.792Z,28.80
2019-02-02T02:36:36.612Z,26.52
2019-02-02T02:39:07.370Z,26.68
2019-02-02T02:41:34.995Z,27.62
2019-02-02T02:44:02.753Z,26.75
2019-02-02T02:46:30.404Z,26.05
2019-02-02T02:48:58.052Z,26.95
2019-02-02T02:51:25.717Z,26.25
2019-02-02T02:53:53.375Z,25.68
2019-02-02T02:56:21.036Z,27.55
2019-02-02T02:58:48.703Z,26.40
2019-02-02T03:01:16.408Z,26.37
2019-02-02T03:03:44.040Z,28.42
2019-02-02T03:06:11.730Z,28.35
2019-02-02T03:08:39.391Z,27.10
2019-02-02T03:11:07.067Z,26.05
2019-02-02T03:13:34.751Z,27.80
2019-02-02T03:16:02.437Z,27.30
2019-02-02T03:18:30.075Z,26.90
2019-02-02T03:20:57.676Z,27.42
2019-02-02T03:23:25.437Z,27.58
2019-02-02T03:25:53.062Z,27.30
2019-02-02T03:28:20.726Z,29.25
2019-02-02T03:30:48.509Z,27.82
2019-02-02T03:33:16.160Z,26.77
2019-02-02T03:35:43.852Z,27.22
2019-02-02T03:38:11.563Z,27.98
2019-02-02T03:40:39.224Z,28.12
2019-02-02T03:43:06.892Z,27.45
2019-02-02T03:45:34.515Z,28.83
2019-02-02T03:48:02.148Z,28.12
2019-02-02T03:50:29.830Z,27.22
2019-02-02T03:52:57.480Z,26.62
2019-02-02T03:55:25.188Z,27.50
2019-02-02T03:57:52.780Z,28.83
2019-02-02T04:00:21.000Z,26.57
2019-02-02T04:02:48.942Z,27.50
2019-02-02T04:05:21.792Z,27.40
2019-02-02T04:07:49.427Z,28.23
2019-02-02T04:10:17.276Z,26.77
2019-02-02T04:12:44.937Z,25.68
2019-02-02T04:15:13.211Z,27.07
2019-02-02T04:17:40.857Z,30.43
2019-02-02T04:20:11.888Z,28.38
2019-02-02T04:22:39.504Z,28.83
2019-02-02T04:25:07.631Z,27.85
2019-02-02T04:27:35.254Z,28.77
2019-02-02T04:30:03.653Z,25.97
2019-02-02T04:32:31.339Z,28.27
2019-02-02T04:34:59.028Z,28.15
2019-02-02T04:37:26.656Z,28.40
2019-02-02T04:39:54.291Z,27.15
2019-02-02T04:42:22.050Z,28.47
2019-02-02T04:44:49.711Z,28.87
2019-02-02T04:47:17.360Z,27.17
2019-02-02T04:49:45.049Z,27.70
2019-02-02T04:52:12.770Z,28.23
2019-02-02T04:54:40.417Z,28.55
2019-02-02T04:57:08.059Z,30.43
2019-02-02T04:59:35.732Z,28.95
2019-02-02T05:02:03.485Z,27.52
2019-02-02T05:04:31.110Z,27.65
2019-02-02T05:06:58.797Z,29.60
2019-02-02T05:09:26.401Z,29.15
2019-02-02T05:11:54.172Z,29.90
2019-02-02T05:14:21.806Z,28.57
2019-02-02T05:16:49.416Z,28.35
2019-02-02T05:19:17.031Z,29.10
2019-02-02T05:21:44.694Z,30.40
2019-02-02T05:24:12.338Z,29.70
2019-02-02T05:26:39.963Z,29.48
2019-02-02T05:29:07.647Z,29.63
2019-02-02T05:31:35.275Z,28.52
2019-02-02T05:34:03.551Z,27.70
2019-02-02T05:36:31.212Z,27.00
2019-02-02T05:38:58.876Z,27.85
2019-02-02T05:41:26.550Z,27.22
2019-02-02T05:43:54.167Z,29.75
2019-02-02T05:46:21.784Z,29.05
2019-02-02T05:48:49.593Z,28.62
2019-02-02T05:51:17.220Z,26.70
2019-02-02T05:53:44.851Z,27.25
2019-02-02T05:56:12.475Z,28.50
2019-02-02T05:58:40.150Z,28.47
2019-02-02T06:01:11.704Z,28.35
2019-02-02T06:03:39.353Z,28.75
2019-02-02T06:06:07.051Z,27.65
2019-02-02T06:08:34.713Z,26.73
2019-02-02T06:11:02.354Z,26.50
2019-02-02T06:13:29.998Z,29.02
2019-02-02T06:15:57.623Z,27.67
2019-02-02T06:18:25.302Z,28.32
2019-02-02T06:20:52.940Z,27.67
2019-02-02T06:23:20.603Z,27.02
2019-02-02T06:25:48.259Z,28.65
2019-02-02T06:28:15.940Z,27.95
2019-02-02T06:30:43.598Z,28.00
2019-02-02T06:33:11.324Z,28.73
2019-02-02T06:35:38.975Z,27.75
2019-02-02T06:38:06.611Z,28.15
2019-02-02T06:40:34.255Z,28.20
2019-02-02T06:43:03.359Z,29.00
2019-02-02T06:45:33.007Z,26.80
2019-02-02T06:48:00.665Z,27.62
2019-02-02T06:50:28.336Z,29.12
2019-02-02T06:52:56.246Z,28.15
2019-02-02T06:55:24.044Z,28.25
2019-02-02T06:57:51.681Z,27.55
2019-02-02T07:00:20.646Z,26.77
2019-02-02T07:02:48.426Z,26.93
2019-02-02T07:05:17.278Z,28.98
2019-02-02T07:07:44.952Z,27.32
2019-02-02T07:10:18.196Z,29.63
2019-02-02T07:12:46.000Z,28.20
2019-02-02T07:15:14.179Z,28.25
2019-02-02T07:17:41.879Z,29.18
2019-02-02T07:20:10.867Z,28.30
2019-02-02T07:22:38.584Z,28.80
2019-02-02T07:25:07.292Z,28.38
2019-02-02T07:27:36.219Z,28.77
2019-02-02T07:30:06.514Z,27.32
2019-02-02T07:32:34.370Z,29.40
2019-02-02T07:35:02.289Z,28.50
2019-02-02T07:37:30.025Z,28.17
2019-02-02T07:39:58.092Z,30.12
2019-02-02T07:42:25.849Z,27.35
2019-02-02T07:44:53.615Z,28.67
2019-02-02T07:47:21.571Z,29.07
2019-02-02T07:49:49.846Z,27.73
2019-02-02T07:52:17.697Z,28.90
2019-02-02T07:54:45.563Z,29.12
2019-02-02T07:57:13.337Z,31.50
2019-02-02T07:59:41.215Z,30.50
2019-02-02T08:02:09.048Z,29.92
2019-02-02T08:04:36.965Z,29.23
2019-02-02T08:07:05.081Z,27.62
2019-02-02T08:09:32.951Z,29.52
2019-02-02T08:12:00.817Z,27.98
2019-02-02T08:14:28.705Z,30.17
2019-02-02T08:16:56.574Z,28.87
2019-02-02T08:19:25.685Z,30.77
2019-02-02T08:21:53.709Z,29.95
2019-02-02T08:24:21.335Z,28.60
2019-02-02T08:26:50.089Z,29.15
2019-02-02T08:29:17.707Z,28.67
2019-02-02T08:31:45.410Z,29.23
2019-02-02T08:34:13.040Z,29.52
2019-02-02T08:36:40.707Z,29.45
2019-02-02T08:39:09.075Z,30.35
2019-02-02T08:41:36.727Z,31.27
2019-02-02T08:44:04.716Z,30.92
2019-02-02T08:46:32.357Z,29.80
2019-02-02T08:48:59.979Z,28.80
2019-02-02T08:51:27.660Z,29.77
2019-02-02T08:53:55.343Z,30.65
2019-02-02T08:56:23.005Z,30.37
2019-02-02T08:58:50.720Z,31.52
2019-02-02T09:01:18.356Z,31.90
2019-02-02T09:03:46.249Z,30.17
2019-02-02T09:06:14.090Z,29.30
2019-02-02T09:08:42.046Z,27.77
2019-02-02T09:11:09.664Z,26.82
2019-02-02T09:13:37.552Z,28.77
2019-02-02T09:16:05.392Z,28.37
2019-02-02T09:18:33.245Z,29.23
2019-02-02T09:21:01.104Z,30.27
2019-02-02T09:23:28.920Z,29.18
2019-02-02T09:25:56.717Z,28.80
2019-02-02T09:28:24.572Z,28.17
2019-02-02T09:30:52.417Z,30.52
2019-02-02T09:33:20.284Z,28.23
2019-02-02T09:35:48.098Z,29.95
2019-02-02T09:38:15.993Z,28.97
2019-02-02T09:40:43.900Z,30.20
2019-02-02T09:43:11.869Z,27.77
2019-02-02T09:45:40.729Z,29.70
2019-02-02T09:48:09.627Z,31.65
2019-02-02T09:50:37.545Z,27.63
2019-02-02T09:53:05.425Z,30.33
2019-02-02T09:55:33.079Z,28.50
2019-02-02T09:58:03.282Z,30.50
2019-02-02T10:00:31.681Z,30.70
2019-02-02T10:02:59.544Z,31.68
2019-02-02T10:05:27.556Z,30.72
2019-02-02T10:07:55.347Z,31.02
2019-02-02T10:10:24.743Z,29.10
2019-02-02T10:12:52.409Z,30.47
2019-02-02T10:15:20.061Z,31.23
2019-02-02T10:17:49.838Z,28.93
2019-02-02T10:20:19.294Z,29.67
2019-02-02T10:22:47.027Z,29.60
2019-02-02T10:25:17.515Z,30.83
2019-02-02T10:27:45.142Z,30.27
2019-02-02T10:30:19.126Z,30.90
2019-02-02T10:32:46.775Z,30.80
2019-02-02T10:35:14.469Z,29.43
2019-02-02T10:37:42.129Z,30.07
2019-02-02T10:40:09.821Z,29.70
2019-02-02T10:42:37.474Z,29.13
2019-02-02T10:45:06.587Z,30.80
2019-02-02T10:47:34.203Z,28.50
2019-02-02T10:50:01.828Z,30.10
2019-02-02T10:52:29.545Z,32.23
2019-02-02T10:54:57.240Z,30.17
2019-02-02T10:57:24.828Z,32.13
2019-02-02T10:59:52.592Z,32.03
2019-02-02T11:02:20.235Z,30.63
2019-02-02T11:04:47.899Z,31.67
2019-02-02T11:07:15.669Z,32.20
2019-02-02T11:09:43.363Z,30.40
2019-02-02T11:12:11.075Z,31.83
2019-02-02T11:14:38.879Z,31.17
2019-02-02T11:17:06.593Z,32.47
2019-02-02T11:19:34.282Z,31.73
2019-02-02T11:22:01.952Z,31.80
2019-02-02T11:24:32.688Z,32.70
2019-02-02T11:27:00.393Z,31.87
2019-02-02T11:29:28.149Z,30.67
2019-02-02T11:32:02.503Z,32.60
2019-02-02T11:34:25.277Z,31.93
2019-02-02T11:36:52.991Z,32.83
2019-02-02T11:39:20.658Z,33.57
2019-02-02T11:41:48.404Z,33.33
2019-02-02T11:44:16.107Z,33.17
2019-02-02T11:46:43.771Z,34.20
2019-02-02T11:49:11.407Z,33.37
2019-02-02T11:51:39.059Z,36.97
2019-02-02T11:54:06.700Z,35.63
2019-02-02T11:56:34.340Z,33.80
2019-02-02T11:59:01.990Z,35.70
2019-02-02T12:01:29.631Z,34.30
2019-02-02T12:03:57.321Z,33.10
2019-02-02T12:06:24.988Z,34.93
2019-02-02T12:08:52.626Z,36.60
2019-02-02T12:11:20.286Z,34.93
2019-02-02T12:13:47.953Z,34.80
2019-02-02T12:16:15.572Z,36.10
2019-02-02T12:18:43.243Z,36.10
2019-02-02T12:21:10.891Z,36.10
2019-02-02T12:23:38.535Z,37.50
2019-02-02T12:26:06.227Z,37.57
2019-02-02T12:28:33.865Z,40.83
2019-02-02T12:31:01.514Z,37.27
2019-02-02T12:33:29.316Z,37.23
2019-02-02T12:35:57.098Z,38.43
2019-02-02T12:38:24.720Z,37.63
2019-02-02T12:40:52.427Z,36.67
2019-02-02T12:43:20.043Z,37.27
2019-02-02T12:45:52.558Z,38.37
2019-02-02T12:48:20.195Z,37.70
2019-02-02T12:50:47.887Z,36.77
2019-02-02T12:53:15.628Z,37.57
2019-02-02T12:55:43.294Z,40.47
2019-02-02T12:58:10.980Z,31.37
2019-02-02T13:00:38.636Z,37.10
2019-02-02T13:03:06.755Z,39.00
2019-02-02T13:05:34.417Z,39.47
2019-02-02T13:08:04.997Z,38.40
2019-02-02T13:10:31.467Z,37.30
2019-02-02T13:12:59.116Z,38.40
2019-02-02T13:15:26.728Z,38.20
2019-02-02T13:17:54.547Z,39.37
2019-02-02T13:20:22.191Z,40.17
2019-02-02T13:22:49.806Z,36.80
2019-02-02T13:25:18.940Z,38.33
2019-02-02T13:27:46.574Z,37.83
2019-02-02T13:30:17.385Z,37.67
2019-02-02T13:32:50.018Z,38.27
2019-02-02T13:35:14.642Z,36.83
2019-02-02T13:37:42.308Z,39.47
2019-02-02T13:40:12.667Z,37.33
2019-02-02T13:42:40.339Z,39.40
2019-02-02T13:45:08.724Z,39.67
2019-02-02T13:47:36.351Z,40.67
2019-02-02T13:50:06.346Z,38.43
2019-02-02T13:52:34.008Z,38.07
2019-02-02T13:55:01.665Z,39.63
2019-02-02T13:57:29.300Z,39.20
2019-02-02T13:59:57.046Z,40.23
2019-02-02T14:02:25.672Z,38.00
2019-02-02T14:04:53.716Z,38.97
2019-02-02T14:07:21.896Z,38.70
2019-02-02T14:09:49.536Z,40.17
2019-02-02T14:12:17.364Z,39.17
2019-02-02T14:14:45.135Z,39.80
2019-02-02T14:17:12.737Z,40.33
2019-02-02T14:19:42.052Z,41.17
2019-02-02T14:22:09.699Z,41.53
2019-02-02T14:24:37.744Z,41.20
2019-02-02T14:27:06.608Z,40.13
2019-02-02T14:29:34.579Z,37.93
2019-02-02T14:32:02.817Z,38.77
2019-02-02T14:34:39.993Z,39.77
2019-02-02T14:37:01.613Z,41.50
2019-02-02T14:39:29.385Z,40.17
2019-02-02T14:41:57.331Z,41.60
2019-02-02T14:44:25.551Z,40.83
2019-02-02T14:46:54.179Z,40.67
2019-02-02T14:49:23.027Z,42.20
2019-02-02T14:51:50.651Z,40.67
2019-02-02T14:54:18.308Z,42.17
2019-02-02T14:56:48.180Z,39.57
2019-02-02T14:59:15.890Z,41.97
2019-02-02T15:01:44.573Z,41.93
2019-02-02T15:04:12.268Z,42.60
2019-02-02T15:06:41.326Z,41.33
2019-02-02T15:09:09.480Z,42.47
2019-02-02T15:11:38.640Z,43.60
2019-02-02T15:14:07.842Z,44.97
2019-02-02T15:16:35.621Z,42.90
2019-02-02T15:19:05.346Z,42.77
2019-02-02T15:21:33.019Z,44.00
2019-02-02T15:24:00.638Z,44.23
2019-02-02T15:26:29.385Z,46.43
2019-02-02T15:28:56.996Z,44.97
2019-02-02T15:31:24.625Z,44.10
2019-02-02T15:33:52.288Z,46.10
2019-02-02T15:36:20.051Z,46.93
2019-02-02T15:38:47.701Z,45.73
2019-02-02T15:41:15.345Z,45.27
2019-02-02T15:43:43.049Z,47.70
2019-02-02T15:46:10.703Z,44.00
2019-02-02T15:48:38.356Z,45.90
2019-02-02T15:51:06.035Z,46.03
2019-02-02T15:53:33.615Z,47.87
2019-02-02T15:56:01.287Z,45.73
2019-02-02T15:58:28.957Z,49.53
2019-02-02T16:00:56.584Z,48.23
2019-02-02T16:03:24.318Z,50.57
2019-02-02T16:05:51.996Z,48.10
2019-02-02T16:08:19.673Z,50.17
2019-02-02T16:10:47.263Z,48.20
2019-02-02T16:13:14.887Z,48.83
2019-02-02T16:15:42.512Z,50.00
2019-02-02T16:18:10.164Z,46.37
2019-02-02T16:20:42.599Z,48.87
2019-02-02T16:23:11.319Z,49.43
2019-02-02T16:25:38.971Z,47.83
2019-02-02T16:28:06.804Z,50.17
2019-02-02T16:30:35.456Z,44.73
2019-02-02T16:33:03.391Z,47.17
2019-02-02T16:35:31.076Z,50.37
2019-02-02T16:38:00.750Z,49.43
2019-02-02T16:40:31.911Z,46.97
2019-02-02T16:42:59.636Z,48.83
2019-02-02T16:45:29.240Z,48.97
2019-02-02T16:47:57.226Z,48.37
2019-02-02T16:50:25.961Z,51.13
2019-02-02T16:52:53.876Z,41.83
2019-02-02T16:55:21.603Z,46.10
2019-02-02T16:57:49.216Z,48.27
2019-02-02T17:00:26.895Z,50.50
2019-02-02T17:02:54.881Z,47.83
2019-02-02T17:05:22.551Z,44.33
2019-02-02T17:07:50.160Z,46.93
2019-02-02T17:10:22.639Z,48.03
2019-02-02T17:12:50.265Z,47.13
2019-02-02T17:15:18.118Z,47.97
2019-02-02T17:17:45.736Z,47.97
2019-02-02T17:20:15.668Z,50.50
2019-02-02T17:22:43.370Z,49.40
2019-02-02T17:25:13.369Z,49.90
2019-02-02T17:27:41.017Z,47.73
2019-02-02T17:30:10.967Z,49.17
2019-02-02T17:32:38.636Z,49.57
2019-02-02T17:35:07.314Z,53.30
2019-02-02T17:37:35.018Z,47.53
2019-02-02T17:40:03.555Z,48.40
2019-02-02T17:42:31.236Z,53.93
2019-02-02T17:44:59.992Z,53.43
2019-02-02T17:47:27.699Z,51.37
2019-02-02T17:49:55.541Z,51.97
2019-02-02T17:52:23.362Z,52.30
2019-02-02T17:54:51.287Z,49.77
2019-02-02T17:57:19.149Z,49.93
2019-02-02T17:59:46.921Z,49.47
2019-02-02T18:02:14.652Z,49.50
2019-02-02T18:04:43.283Z,45.77
2019-02-02T18:07:11.188Z,50.87
2019-02-02T18:09:39.104Z,49.50
2019-02-02T18:12:06.947Z,48.50
2019-02-02T18:14:34.753Z,48.03
2019-02-02T18:17:02.547Z,47.43
2019-02-02T18:19:30.319Z,48.23
2019-02-02T18:21:58.161Z,47.67
2019-02-02T18:24:25.943Z,47.73
2019-02-02T18:26:53.724Z,49.03
2019-02-02T18:29:21.619Z,50.33
2019-02-02T18:31:49.506Z,50.90
2019-02-02T18:34:17.292Z,50.37
2019-02-02T18:36:45.199Z,50.87
2019-02-02T18:39:13.028Z,49.73
2019-02-02T18:41:40.842Z,49.27
2019-02-02T18:44:08.675Z,50.07
2019-02-02T18:46:36.492Z,47.23
2019-02-02T18:49:04.567Z,51.10
2019-02-02T18:51:32.319Z,50.70
2019-02-02T18:54:00.312Z,49.30
2019-02-02T18:56:28.286Z,49.53
2019-02-02T18:58:56.118Z,49.17
2019-02-02T19:01:23.991Z,47.90
2019-02-02T19:03:51.983Z,51.07
2019-02-02T19:06:23.446Z,46.27
2019-02-02T19:08:51.876Z,47.47
2019-02-02T19:11:19.805Z,47.57
2019-02-02T19:13:47.502Z,45.47
2019-02-02T19:16:15.524Z,48.17
2019-02-02T19:18:43.434Z,48.13
2019-02-02T19:21:11.805Z,46.83
2019-02-02T19:23:42.825Z,49.33
2019-02-02T19:26:10.536Z,48.87
2019-02-02T19:28:40.259Z,47.57
2019-02-02T19:31:08.750Z,50.43
2019-02-02T19:33:36.631Z,49.37
2019-02-02T19:36:04.975Z,48.47
2019-02-02T19:38:32.714Z,49.90
2019-02-02T19:41:00.486Z,47.97
2019-02-02T19:43:28.999Z,51.10
2019-02-02T19:45:59.179Z,50.80
2019-02-02T19:48:26.890Z,50.23
2019-02-02T19:50:55.741Z,52.37
2019-02-02T19:53:23.760Z,51.87
2019-02-02T19:55:51.483Z,51.97
2019-02-02T19:58:19.313Z,50.90
2019-02-02T20:00:47.162Z,50.87
2019-02-02T20:03:14.872Z,50.40
2019-02-02T20:05:42.619Z,52.37
2019-02-02T20:08:10.299Z,53.17
2019-02-02T20:10:38.036Z,56.00
2019-02-02T20:13:05.904Z,52.43
2019-02-02T20:15:33.581Z,53.23
2019-02-02T20:18:09.377Z,55.87
2019-02-02T20:20:31.311Z,52.03
2019-02-02T20:22:58.924Z,52.83
2019-02-02T20:25:26.732Z,54.37
2019-02-02T20:27:54.562Z,52.17
2019-02-02T20:30:24.409Z,51.40
2019-02-02T20:32:52.098Z,52.37
2019-02-02T20:35:19.763Z,49.63
2019-02-02T20:37:47.518Z,52.83
2019-02-02T20:40:18.234Z,56.13
2019-02-02T20:42:45.972Z,54.03
2019-02-02T20:45:16.040Z,52.13
2019-02-02T20:47:43.910Z,57.57
2019-02-02T20:50:13.789Z,56.13
2019-02-02T20:52:47.627Z,53.03
2019-02-02T20:55:17.764Z,53.40
2019-02-02T20:57:45.984Z,55.33
2019-02-02T21:00:18.758Z,55.70
2019-02-02T21:02:46.400Z,54.17
2019-02-02T21:05:14.029Z,58.13
2019-02-02T21:07:41.698Z,55.23
2019-02-02T21:10:12.053Z,55.00
2019-02-02T21:12:39.718Z,56.13
2019-02-02T21:15:08.967Z,57.20
2019-02-02T21:17:36.640Z,55.83
2019-02-02T21:20:06.116Z,53.23
2019-02-02T21:22:33.791Z,55.03
2019-02-02T21:25:01.450Z,55.67
2019-02-02T21:27:29.078Z,56.33
2019-02-02T21:29:56.776Z,59.77
2019-02-02T21:32:24.412Z,58.50
2019-02-02T21:34:52.003Z,84.50
2019-02-02T21:37:19.674Z,55.53
2019-02-02T21:39:47.371Z,53.93
2019-02-02T21:42:15.161Z,54.50
2019-02-02T21:44:43.496Z,56.03
2019-02-02T21:47:11.212Z,60.50
2019-02-02T21:49:38.875Z,61.23
2019-02-02T21:52:06.676Z,58.13
2019-02-02T21:54:34.300Z,53.83
2019-02-02T21:57:02.200Z,51.50
2019-02-02T21:59:30.047Z,49.17
2019-02-02T22:01:57.704Z,52.20
2019-02-02T22:04:25.380Z,52.27
2019-02-02T22:06:53.023Z,51.13
2019-02-02T22:09:20.716Z,54.13
2019-02-02T22:11:48.526Z,50.70
2019-02-02T22:14:16.128Z,49.17
2019-02-02T22:16:43.889Z,53.50
2019-02-02T22:19:11.543Z,50.13
2019-02-02T22:21:39.159Z,50.77
2019-02-02T22:24:06.788Z,52.07
2019-02-02T22:26:34.640Z,53.73
2019-02-02T22:29:02.220Z,60.20
2019-02-02T22:31:29.869Z,46.07
2019-02-02T22:33:57.539Z,51.97
2019-02-02T22:36:27.648Z,50.57
2019-02-02T22:38:54.690Z,51.43
2019-02-02T22:41:22.584Z,48.63
2019-02-02T22:43:50.254Z,47.47
2019-02-02T22:46:17.889Z,49.57
2019-02-02T22:48:45.503Z,49.20
2019-02-02T22:51:13.201Z,52.00
2019-02-02T22:53:40.830Z,52.90
2019-02-02T22:56:08.782Z,50.97
2019-02-02T22:58:36.439Z,58.53
2019-02-02T23:01:15.115Z,57.27
2019-02-02T23:03:49.407Z,49.53
2019-02-02T23:06:54.423Z,51.43
2019-02-02T23:10:17.819Z,49.57
2019-02-02T23:13:18.078Z,48.17
2019-02-02T23:16:06.551Z,54.87
2019-02-02T23:18:34.183Z,56.07
2019-02-02T23:21:01.804Z,52.53
2019-02-02T23:23:29.519Z,57.83
2019-02-02T23:25:57.162Z,52.40
2019-02-02T23:28:24.804Z,63.17
2019-02-02T23:30:55.349Z,58.70
2019-02-02T23:33:22.058Z,65.13
2019-02-02T23:35:49.770Z,63.87
2019-02-02T23:38:17.414Z,59.00
2019-02-02T23:40:45.245Z,53.47
2019-02-02T23:43:15.393Z,53.33
2019-02-02T23:45:42.363Z,64.77
2019-02-02T23:48:10.044Z,57.83
2019-02-02T23:50:37.688Z,61.90
2019-02-02T23:53:05.327Z,54.07
2019-02-02T23:55:33.124Z,75.53
2019-02-02T23:58:00.865Z,51.37
